Time;durP1;ratioP1;P1;durP2;ratioP2;P2;SDS_P1;SDS_P2;PMS_P1;PMS_P2;Temp;Humidity;BMP_temperature;BMP_pressure;BME280_temperature;BME280_humidity;BME280_pressure;Samples;Min_cycle;Max_cycle;Signal;HPM_P1;HPM_P2
2022/04/05 00:08:48;;;;;;;9.77;4.93;;;;;;;5.11;56.50;99953.22;18371228;32;20094;-64
2022/04/05 00:18:53;;;;;;;13.85;5.40;;;;;;;5.13;57.38;99947.22;18370716;32;20124;-64
2022/04/05 00:28:56;;;;;;;10.75;4.45;;;;;;;4.78;58.27;99942.44;18371436;32;20101;-64
2022/04/05 00:39:01;;;;;;;8.60;4.45;;;;;;;4.47;59.52;99936.84;18369993;32;20093;-64
2022/04/05 00:49:04;;;;;;;9.18;4.18;;;;;;;4.71;60.19;99940.63;18369672;32;20097;-64
2022/04/05 00:59:09;;;;;;;9.00;3.65;;;;;;;5.50;58.96;99917.44;18369682;32;20116;-65
2022/04/05 01:09:12;;;;;;;9.10;4.53;;;;;;;6.37;54.55;99903.56;18369555;32;20081;-64
2022/04/05 01:19:17;;;;;;;6.93;3.47;;;;;;;6.61;53.23;99904.59;18369026;32;20439;-65
2022/04/05 01:29:24;;;;;;;9.82;4.07;;;;;;;7.28;52.16;99896.25;18369820;32;20097;-64
2022/04/05 01:39:30;;;;;;;12.45;5.07;;;;;;;7.27;52.07;99908.34;18368539;32;20158;-64
2022/04/05 01:49:35;;;;;;;9.80;5.00;;;;;;;6.88;53.78;99897.81;18368405;32;20152;-64
2022/04/05 01:59:39;;;;;;;13.25;5.80;;;;;;;6.88;54.07;99892.63;18367963;32;20120;-64
2022/04/05 02:09:45;;;;;;;10.23;4.62;;;;;;;6.71;55.12;99883.91;18368584;32;20430;-64
2022/04/05 02:19:48;;;;;;;7.43;3.22;;;;;;;6.89;54.29;99859.75;18366328;32;20711;-65
2022/04/05 02:29:52;;;;;;;8.00;3.22;;;;;;;7.38;51.99;99850.38;18366468;32;20104;-64
2022/04/05 02:39:55;;;;;;;7.65;3.67;;;;;;;7.21;51.97;99849.47;18366018;32;20093;-64
2022/04/05 02:50:00;;;;;;;7.50;3.72;;;;;;;7.60;50.92;99835.69;18365757;32;20105;-65
2022/04/05 03:00:04;;;;;;;7.85;3.95;;;;;;;7.85;50.35;99826.19;18365102;32;20088;-64
2022/04/05 03:10:10;;;;;;;7.87;3.72;;;;;;;7.63;51.10;99830.50;18364502;32;20101;-64
2022/04/05 03:20:14;;;;;;;11.12;5.47;;;;;;;7.77;50.67;99833.09;18363625;32;20101;-64
2022/04/05 03:30:20;;;;;;;11.93;6.03;;;;;;;7.33;54.38;99822.69;18369963;32;20102;-64
2022/04/05 03:40:23;;;;;;;11.45;5.62;;;;;;;6.93;56.14;99825.19;18371724;32;20451;-64
2022/04/05 03:50:28;;;;;;;10.27;5.10;;;;;;;6.92;56.09;99808.75;18371487;32;20123;-64
2022/04/05 04:00:31;;;;;;;14.18;5.93;;;;;;;6.75;56.91;99808.69;18371115;32;20101;-64
2022/04/05 04:10:36;;;;;;;11.68;5.82;;;;;;;6.77;57.18;99791.41;18370493;32;20106;-64
2022/04/05 04:20:42;;;;;;;12.40;5.90;;;;;;;6.65;57.61;99800.00;18370762;32;20105;-64
2022/04/05 04:30:46;;;;;;;10.43;4.97;;;;;;;7.00;56.75;99806.16;18368661;32;92876;-65
2022/04/05 04:40:51;;;;;;;11.15;4.87;;;;;;;6.85;57.86;99786.22;18369441;32;20081;-64
2022/04/05 04:50:55;;;;;;;12.18;6.07;;;;;;;7.52;55.86;99791.56;18363547;32;20085;-64
2022/04/05 05:00:58;;;;;;;13.13;6.35;;;;;;;7.45;55.67;99787.22;18369612;32;20131;-64
2022/04/05 05:11:03;;;;;;;15.13;7.25;;;;;;;7.22;56.22;99796.69;18363550;32;20094;-65
2022/04/05 05:21:06;;;;;;;12.07;5.85;;;;;;;7.09;55.84;99794.94;18361603;32;20445;-64
2022/04/05 05:31:11;;;;;;;12.05;5.93;;;;;;;7.27;55.54;99808.84;18367936;32;20435;-65
2022/04/05 05:41:14;;;;;;;11.40;5.60;;;;;;;7.03;56.99;99801.00;18368093;32;20390;-64
2022/04/05 05:51:19;;;;;;;17.08;7.82;;;;;;;7.07;56.13;99802.72;18366475;32;20378;-64
2022/04/05 06:01:24;;;;;;;13.07;6.60;;;;;;;7.10;56.18;99812.25;18365167;32;20390;-64
2022/04/05 06:11:28;;;;;;;12.52;6.40;;;;;;;7.27;55.99;99820.06;18366488;32;20112;-65
2022/04/05 06:21:31;;;;;;;14.63;7.62;;;;;;;7.82;55.40;99827.91;18367233;32;20093;-65
2022/04/05 06:31:36;;;;;;;16.83;7.40;;;;;;;8.11;54.28;99832.22;18365786;32;20097;-65
2022/04/05 06:41:39;;;;;;;16.05;8.18;;;;;;;8.59;53.12;99811.34;18365627;32;20143;-65
2022/04/05 06:51:44;;;;;;;12.75;6.55;;;;;;;11.14;47.16;99803.94;18366341;32;20097;-65
2022/04/05 07:01:47;;;;;;;13.15;6.75;;;;;;;12.94;41.99;99791.22;18368662;32;20385;-65
2022/04/05 07:11:52;;;;;;;11.12;5.20;;;;;;;13.54;41.09;99799.50;18361660;32;20090;-67
2022/04/05 07:21:55;;;;;;;8.10;3.17;;;;;;;15.70;37.68;99787.28;18370386;32;20089;-65
2022/04/05 07:32:00;;;;;;;10.32;3.62;;;;;;;15.32;34.50;99780.59;18369785;32;20108;-64
2022/04/05 07:42:04;;;;;;;7.07;3.20;;;;;;;15.01;35.22;99771.06;18370792;32;20089;-64
2022/04/05 07:52:08;;;;;;;7.57;3.00;;;;;;;15.32;34.15;99784.97;18371156;32;20151;-64
2022/04/05 08:02:12;;;;;;;8.52;3.58;;;;;;;14.61;35.66;99787.97;18370767;32;20090;-64
2022/04/05 08:12:39;;;;;;;7.30;3.30;;;;;;;13.56;37.43;99787.19;18369620;32;20113;-64
2022/04/05 08:22:42;;;;;;;7.23;3.50;;;;;;;13.55;37.76;99790.72;18369826;32;20703;-64
2022/04/05 08:32:48;;;;;;;7.62;3.62;;;;;;;12.80;38.88;99787.13;18368187;32;20089;-64
2022/04/05 08:42:53;;;;;;;6.87;3.22;;;;;;;12.58;39.32;99803.28;18369766;32;20093;-65
2022/04/05 08:52:59;;;;;;;6.57;2.83;;;;;;;12.80;39.38;99794.97;18342261;32;20379;-65
2022/04/05 09:03:09;;;;;;;7.10;2.80;;;;;;;13.17;38.66;99775.81;18369202;32;20107;-64
2022/04/05 09:13:18;;;;;;;6.28;2.53;;;;;;;12.90;38.48;99774.69;18357386;32;20115;-64
2022/04/05 09:23:26;;;;;;;4.22;2.12;;;;;;;13.15;36.66;99776.78;18357400;32;20093;-64
2022/04/05 09:33:32;;;;;;;7.65;2.78;;;;;;;13.47;37.63;99790.91;18369744;32;20117;-65
2022/04/05 09:43:35;;;;;;;6.53;3.10;;;;;;;13.89;36.42;99800.38;18366930;32;20089;-65
2022/04/05 09:53:46;;;;;;;5.25;2.47;;;;;;;13.74;36.45;99785.91;18367378;32;20097;-65
2022/04/05 10:04:01;;;;;;;8.70;3.10;;;;;;;15.94;33.40;99775.09;18367728;32;20111;-65
2022/04/05 10:14:07;;;;;;;5.85;2.47;;;;;;;18.69;29.48;99761.56;18364720;32;20105;-66
2022/04/05 10:24:12;;;;;;;8.88;3.30;;;;;;;19.55;26.28;99758.38;18361135;32;20096;-65
2022/04/05 10:34:21;;;;;;;6.85;3.08;;;;;;;19.87;27.32;99762.13;18363958;32;20111;-65
2022/04/05 10:44:27;;;;;;;7.28;3.45;;;;;;;17.86;30.62;99773.97;18363938;32;20156;-65
2022/04/05 10:54:37;;;;;;;7.57;3.47;;;;;;;15.84;34.96;99797.34;18326512;32;20116;-65
2022/04/05 11:04:40;;;;;;;6.40;3.12;;;;;;;15.43;36.36;99793.41;18364466;32;20119;-65
2022/04/05 11:14:49;;;;;;;5.28;2.58;;;;;;;15.50;38.16;99804.59;18362510;32;20105;-65
2022/04/05 11:24:53;;;;;;;4.47;2.00;;;;;;;15.36;39.43;99805.88;18359401;32;20111;-65
2022/04/05 11:34:58;;;;;;;6.78;2.58;;;;;;;14.77;39.95;99812.06;18354389;32;20124;-64
2022/04/05 11:45:03;;;;;;;4.53;2.53;;;;;;;14.72;40.99;99822.69;18359113;32;20153;-64
2022/04/05 12:05:42;;;;;;;4.53;1.98;;;;;;;15.24;41.61;99809.78;18369308;32;20151;-64
2022/04/05 12:15:47;;;;;;;4.07;2.20;;;;;;;15.23;41.60;99801.91;18369446;32;20162;-64
2022/04/05 12:26:08;;;;;;;3.40;1.65;;;;;;;14.94;41.70;99790.53;18369620;32;20454;-64
2022/04/05 12:36:13;;;;;;;3.83;1.70;;;;;;;15.18;40.78;99772.31;18368603;32;20122;-65
2022/04/05 12:46:16;;;;;;;3.75;1.70;;;;;;;15.48;40.81;99766.97;18361026;32;20093;-64
2022/04/05 12:56:30;;;;;;;3.62;1.80;;;;;;;15.53;41.35;99755.38;18304682;32;20348;-64
2022/04/05 13:06:33;;;;;;;3.15;1.75;;;;;;;16.03;40.28;99772.16;18305107;32;20185;-64
2022/04/05 13:16:38;;;;;;;4.30;1.77;;;;;;;15.59;41.38;99749.06;18304542;32;20440;-65
2022/04/05 13:26:44;;;;;;;3.35;1.45;;;;;;;16.59;39.08;99746.44;18304717;32;20120;-65
2022/04/05 13:36:50;;;;;;;3.60;1.65;;;;;;;15.84;39.69;99756.13;18303888;32;20138;-65
2022/04/05 13:46:54;;;;;;;2.67;1.60;;;;;;;16.02;40.70;99749.37;18304159;32;20151;-65
2022/04/05 13:57:00;;;;;;;4.12;1.70;;;;;;;16.31;40.23;99746.59;18303030;32;20430;-65
2022/04/05 14:07:03;;;;;;;5.18;2.08;;;;;;;15.85;40.62;99752.56;18302599;32;20105;-65
2022/04/05 14:17:08;;;;;;;4.03;1.52;;;;;;;15.60;41.16;99752.53;18302159;32;20089;-64
2022/04/05 14:27:11;;;;;;;3.00;1.50;;;;;;;16.33;40.30;99721.94;18303456;32;20104;-67
2022/04/05 14:37:16;;;;;;;3.62;1.73;;;;;;;16.68;38.48;99724.13;18301518;32;20112;-67
2022/04/05 14:47:19;;;;;;;3.85;1.75;;;;;;;16.56;38.89;99717.59;18302699;32;20089;-67
2022/04/05 14:57:24;;;;;;;1.98;1.33;;;;;;;15.94;39.86;99715.44;18339864;32;20122;-66
2022/04/05 15:07:27;;;;;;;4.12;2.00;;;;;;;15.47;41.12;99720.53;18358581;32;20183;-66
2022/04/05 15:17:32;;;;;;;9.10;1.90;;;;;;;15.53;41.89;99720.31;18360190;32;20086;-66
2022/04/05 15:27:35;;;;;;;2.70;1.50;;;;;;;15.09;42.81;99720.88;18371755;32;20117;-67
2022/04/05 15:37:40;;;;;;;11.68;5.97;;;;;;;14.68;43.79;99729.06;18370809;32;20112;-67
2022/04/05 15:47:44;;;;;;;4.05;1.77;;;;;;;14.99;43.92;99730.81;18372131;32;20089;-66
2022/04/05 15:57:49;;;;;;;2.55;1.50;;;;;;;14.92;44.34;99731.91;18368370;32;20097;-64
2022/04/05 16:07:52;;;;;;;3.55;1.85;;;;;;;14.24;45.29;99739.97;18371052;32;20085;-67
2022/04/05 16:17:57;;;;;;;4.70;1.87;;;;;;;14.39;45.71;99726.41;18370242;32;20097;-66
2022/04/05 16:28:02;;;;;;;4.18;1.40;;;;;;;14.29;45.96;99735.47;18370361;32;20093;-66
2022/04/05 16:38:07;;;;;;;1.65;1.30;;;;;;;13.81;46.60;99745.50;18369570;32;20175;-66
2022/04/05 16:48:10;;;;;;;3.87;1.73;;;;;;;13.87;46.45;99750.56;18370042;32;20089;-66
2022/04/05 16:58:15;;;;;;;3.95;1.30;;;;;;;14.12;45.92;99752.53;18369775;32;20116;-66
2022/04/05 17:08:20;;;;;;;3.12;1.27;;;;;;;13.80;46.73;99775.25;18369424;32;20143;-66
2022/04/05 17:18:25;;;;;;;3.05;1.40;;;;;;;13.95;46.56;99778.38;18369243;32;20612;-66
2022/04/05 17:28:29;;;;;;;1.75;1.20;;;;;;;13.65;46.82;99794.84;18366538;32;20460;-66
2022/04/05 17:38:33;;;;;;;2.50;1.40;;;;;;;13.35;48.13;99807.75;18362502;32;20094;-66
2022/04/05 17:48:38;;;;;;;2.87;1.60;;;;;;;12.93;49.51;99808.69;18363375;32;20140;-65
2022/04/05 17:58:42;;;;;;;3.03;1.60;;;;;;;13.05;50.19;99812.78;18367981;32;20112;-66
2022/04/05 18:08:46;;;;;;;2.62;1.73;;;;;;;12.87;51.64;99825.41;18367736;32;20114;-65
2022/04/05 18:18:50;;;;;;;2.95;1.73;;;;;;;12.81;51.77;99827.28;18364203;32;20093;-66
2022/04/05 18:28:53;;;;;;;4.32;1.95;;;;;;;12.79;51.96;99848.25;18365580;32;20094;-66
2022/04/05 18:38:58;;;;;;;5.62;2.08;;;;;;;12.64;52.71;99867.75;18365173;32;20388;-66
2022/04/05 18:49:01;;;;;;;19.65;10.27;;;;;;;12.51;53.14;99869.75;18363757;32;20105;-65
2022/04/05 18:59:06;;;;;;;4.10;1.90;;;;;;;12.58;52.48;99878.37;18369175;32;20082;-65
2022/04/05 19:09:10;;;;;;;7.03;2.67;;;;;;;12.38;53.30;99889.19;18371007;32;20129;-65
2022/04/05 19:19:17;;;;;;;3.20;1.92;;;;;;;12.33;53.23;99890.16;18365414;32;20125;-65
2022/04/05 19:29:21;;;;;;;3.62;1.62;;;;;;;12.31;53.55;99891.06;18356907;32;20522;-65
2022/04/05 19:39:26;;;;;;;3.30;1.73;;;;;;;12.42;53.28;99885.63;18371712;32;20647;-65
2022/04/05 19:49:30;;;;;;;3.72;1.77;;;;;;;12.31;53.81;99894.53;18368000;32;20131;-66
2022/04/05 19:59:35;;;;;;;4.78;2.12;;;;;;;12.24;54.59;99895.56;18366302;32;20654;-66
2022/04/05 20:09:42;;;;;;;5.35;2.30;;;;;;;12.70;53.31;99895.56;18364402;32;20199;-66
2022/04/05 20:19:47;;;;;;;4.50;1.83;;;;;;;12.65;53.71;99903.53;18347665;32;20089;-65
2022/04/05 20:29:50;;;;;;;2.78;1.60;;;;;;;12.53;54.11;99899.41;18370906;32;20149;-66
2022/04/05 20:39:57;;;;;;;5.62;2.10;;;;;;;12.57;53.83;99882.72;18366021;32;20106;-66
2022/04/05 20:50:00;;;;;;;6.37;3.03;;;;;;;12.58;53.99;99900.16;18356637;32;20108;-66
2022/04/05 21:00:08;;;;;;;12.10;3.90;;;;;;;12.42;54.40;99896.97;18352542;32;20105;-66
2022/04/05 21:10:12;;;;;;;5.12;2.67;;;;;;;11.76;56.59;99894.53;18332058;32;20098;-65
2022/04/05 21:20:17;;;;;;;7.30;3.45;;;;;;;11.86;56.09;99899.63;18331622;32;20595;-66
2022/04/05 21:30:20;;;;;;;9.00;3.72;;;;;;;11.19;57.91;99909.25;18323358;32;20398;-66
2022/04/05 21:40:25;;;;;;;7.90;4.03;;;;;;;11.04;58.77;99904.22;18358029;32;20420;-66
2022/04/05 21:50:28;;;;;;;8.00;3.08;;;;;;;10.73;59.10;99918.47;18347771;32;20115;-66
2022/04/05 22:00:36;;;;;;;6.93;3.12;;;;;;;10.14;60.91;99906.81;18363061;32;20089;-65
2022/04/05 22:10:39;;;;;;;5.07;2.17;;;;;;;10.52;60.44;99907.38;18362947;32;20111;-66
2022/04/05 22:20:44;;;;;;;6.87;3.10;;;;;;;10.81;59.71;99892.28;18364279;32;20102;-65
2022/04/05 22:30:48;;;;;;;6.47;2.62;;;;;;;10.19;60.94;99895.47;18363209;32;20108;-65
2022/04/05 22:40:53;;;;;;;6.43;2.95;;;;;;;9.97;63.41;99900.88;18362637;32;20166;-65
2022/04/05 22:50:57;;;;;;;7.07;2.90;;;;;;;9.98;62.19;99913.88;18363726;32;20113;-65
2022/04/05 23:01:01;;;;;;;5.05;2.17;;;;;;;9.97;62.85;99919.13;18362003;32;20120;-65
2022/04/05 23:11:04;;;;;;;5.80;2.83;;;;;;;10.05;61.64;99926.91;18361655;32;20108;-65
2022/04/05 23:21:09;;;;;;;4.35;2.05;;;;;;;9.79;62.59;99923.59;18360629;32;20090;-66
2022/04/05 23:31:12;;;;;;;4.50;2.30;;;;;;;9.73;63.32;99936.66;18360362;32;20378;-66
2022/04/05 23:41:17;;;;;;;5.05;2.22;;;;;;;9.51;63.35;99938.53;18361740;32;20097;-65
2022/04/05 23:51:20;;;;;;;5.85;2.40;;;;;;;9.38;63.68;99942.94;18369791;32;20363;-65
